sensor_id;sensor_type;location;lat;lon;timestamp;pressure;altitude;pressure_sealevel;temperature;humidity
23427;BME280;41148;45.420;10.952;2023-04-08T00:02:23;100733.84;;;8.78;57.43
23427;BME280;41148;45.420;10.952;2023-04-08T00:04:51;100744.47;;;8.79;57.47
23427;BME280;41148;45.420;10.952;2023-04-08T00:07:18;100728.94;;;8.58;57.79
23427;BME280;41148;45.420;10.952;2023-04-08T00:09:46;100736.91;;;8.59;57.98
23427;BME280;41148;45.420;10.952;2023-04-08T00:12:13;100746.38;;;8.73;57.73
23427;BME280;41148;45.420;10.952;2023-04-08T00:14:41;100741.13;;;8.68;57.99
23427;BME280;41148;45.420;10.952;2023-04-08T00:17:08;100746.63;;;8.60;58.38
23427;BME280;41148;45.420;10.952;2023-04-08T00:19:36;100733.38;;;8.59;57.86
23427;BME280;41148;45.420;10.952;2023-04-08T00:22:03;100736.91;;;8.59;58.38
23427;BME280;41148;45.420;10.952;2023-04-08T00:24:31;100745.56;;;8.68;58.88
23427;BME280;41148;45.420;10.952;2023-04-08T00:26:58;100744.09;;;8.53;58.97
23427;BME280;41148;45.420;10.952;2023-04-08T00:29:26;100739.56;;;8.58;58.78
23427;BME280;41148;45.420;10.952;2023-04-08T00:31:53;100730.84;;;8.51;59.32
23427;BME280;41148;45.420;10.952;2023-04-08T00:34:22;100743.38;;;8.43;59.46
23427;BME280;41148;45.420;10.952;2023-04-08T00:36:50;100736.44;;;8.36;59.43
23427;BME280;41148;45.420;10.952;2023-04-08T00:39:18;100734.00;;;8.22;59.92
23427;BME280;41148;45.420;10.952;2023-04-08T00:41:45;100728.66;;;8.24;59.10
23427;BME280;41148;45.420;10.952;2023-04-08T00:44:15;100735.75;;;8.23;59.50
23427;BME280;41148;45.420;10.952;2023-04-08T00:46:43;100724.38;;;8.15;59.79
23427;BME280;41148;45.420;10.952;2023-04-08T00:49:11;100727.13;;;8.09;60.91
23427;BME280;41148;45.420;10.952;2023-04-08T00:51:38;100727.31;;;7.98;61.97
23427;BME280;41148;45.420;10.952;2023-04-08T00:54:07;100729.19;;;7.93;62.56
23427;BME280;41148;45.420;10.952;2023-04-08T00:56:34;100723.88;;;7.93;62.43
23427;BME280;41148;45.420;10.952;2023-04-08T00:59:03;100731.88;;;7.92;62.26
23427;BME280;41148;45.420;10.952;2023-04-08T01:01:38;100716.47;;;7.58;62.82
23427;BME280;41148;45.420;10.952;2023-04-08T01:04:20;100741.03;;;7.72;62.91
23427;BME280;41148;45.420;10.952;2023-04-08T01:07:01;100730.91;;;7.96;62.25
23427;BME280;41148;45.420;10.952;2023-04-08T01:09:32;100719.53;;;7.88;62.29
23427;BME280;41148;45.420;10.952;2023-04-08T01:12:07;100736.28;;;7.93;62.55
23427;BME280;41148;45.420;10.952;2023-04-08T01:14:38;100737.66;;;7.60;63.53
23427;BME280;41148;45.420;10.952;2023-04-08T01:17:08;100736.81;;;7.58;64.07
23427;BME280;41148;45.420;10.952;2023-04-08T01:19:38;100733.16;;;7.66;64.08
23427;BME280;41148;45.420;10.952;2023-04-08T01:22:11;100725.09;;;7.74;64.36
23427;BME280;41148;45.420;10.952;2023-04-08T01:24:43;100735.16;;;7.51;65.09
23427;BME280;41148;45.420;10.952;2023-04-08T01:27:13;100736.19;;;7.39;66.01
23427;BME280;41148;45.420;10.952;2023-04-08T01:29:41;100737.19;;;7.32;66.13
23427;BME280;41148;45.420;10.952;2023-04-08T01:32:09;100722.75;;;7.51;65.44
23427;BME280;41148;45.420;10.952;2023-04-08T01:34:38;100723.00;;;7.36;65.52
23427;BME280;41148;45.420;10.952;2023-04-08T01:37:07;100731.53;;;7.56;65.24
23427;BME280;41148;45.420;10.952;2023-04-08T01:39:37;100725.41;;;7.51;65.11
23427;BME280;41148;45.420;10.952;2023-04-08T01:42:07;100730.56;;;7.62;64.96
23427;BME280;41148;45.420;10.952;2023-04-08T01:44:35;100728.97;;;7.50;65.00
23427;BME280;41148;45.420;10.952;2023-04-08T01:47:04;100725.69;;;7.31;66.10
23427;BME280;41148;45.420;10.952;2023-04-08T01:49:32;100725.63;;;7.37;66.17
23427;BME280;41148;45.420;10.952;2023-04-08T01:52:00;100729.94;;;7.43;66.05
23427;BME280;41148;45.420;10.952;2023-04-08T01:54:28;100731.59;;;7.52;65.48
23427;BME280;41148;45.420;10.952;2023-04-08T01:56:56;100731.66;;;7.49;65.74
23427;BME280;41148;45.420;10.952;2023-04-08T01:59:29;100735.25;;;7.43;66.12
23427;BME280;41148;45.420;10.952;2023-04-08T02:01:59;100728.31;;;7.36;66.39
23427;BME280;41148;45.420;10.952;2023-04-08T02:04:28;100727.59;;;7.25;66.89
23427;BME280;41148;45.420;10.952;2023-04-08T02:06:56;100729.06;;;7.42;66.52
23427;BME280;41148;45.420;10.952;2023-04-08T02:09:24;100710.94;;;7.12;67.13
23427;BME280;41148;45.420;10.952;2023-04-08T02:11:52;100737.44;;;7.12;67.63
23427;BME280;41148;45.420;10.952;2023-04-08T02:14:19;100732.13;;;7.13;67.83
23427;BME280;41148;45.420;10.952;2023-04-08T02:16:52;100717.88;;;7.22;66.76
23427;BME280;41148;45.420;10.952;2023-04-08T02:19:28;100712.56;;;7.25;66.48
23427;BME280;41148;45.420;10.952;2023-04-08T02:22:02;100734.53;;;7.32;66.38
23427;BME280;41148;45.420;10.952;2023-04-08T02:24:34;100733.06;;;7.11;67.06
23427;BME280;41148;45.420;10.952;2023-04-08T02:27:03;100727.59;;;7.22;66.58
23427;BME280;41148;45.420;10.952;2023-04-08T02:29:32;100738.06;;;7.32;66.17
23427;BME280;41148;45.420;10.952;2023-04-08T02:32:01;100731.00;;;7.31;66.32
23427;BME280;41148;45.420;10.952;2023-04-08T02:34:31;100731.84;;;7.35;66.07
23427;BME280;41148;45.420;10.952;2023-04-08T02:37:01;100732.91;;;7.22;66.36
23427;BME280;41148;45.420;10.952;2023-04-08T02:39:31;100724.94;;;7.23;66.23
23427;BME280;41148;45.420;10.952;2023-04-08T02:41:59;100720.59;;;7.19;66.31
23427;BME280;41148;45.420;10.952;2023-04-08T02:44:27;100730.09;;;7.35;66.64
23427;BME280;41148;45.420;10.952;2023-04-08T02:46:58;100741.72;;;7.25;66.99
23427;BME280;41148;45.420;10.952;2023-04-08T02:49:26;100728.38;;;7.30;66.44
23427;BME280;41148;45.420;10.952;2023-04-08T02:51:53;100721.38;;;7.26;66.31
23427;BME280;41148;45.420;10.952;2023-04-08T02:54:20;100725.81;;;7.24;66.65
23427;BME280;41148;45.420;10.952;2023-04-08T02:56:48;100724.91;;;7.26;66.86
23427;BME280;41148;45.420;10.952;2023-04-08T02:59:15;100721.25;;;7.33;65.71
23427;BME280;41148;45.420;10.952;2023-04-08T03:01:43;100719.53;;;7.31;65.42
23427;BME280;41148;45.420;10.952;2023-04-08T03:04:10;100714.38;;;7.20;64.92
23427;BME280;41148;45.420;10.952;2023-04-08T03:06:38;100715.09;;;7.34;64.62
23427;BME280;41148;45.420;10.952;2023-04-08T03:09:05;100705.28;;;7.38;64.18
23427;BME280;41148;45.420;10.952;2023-04-08T03:11:33;100713.19;;;7.44;64.42
23427;BME280;41148;45.420;10.952;2023-04-08T03:14:00;100717.63;;;7.40;64.13
23427;BME280;41148;45.420;10.952;2023-04-08T03:16:28;100714.03;;;7.46;64.00
23427;BME280;41148;45.420;10.952;2023-04-08T03:18:56;100715.78;;;7.45;64.04
23427;BME280;41148;45.420;10.952;2023-04-08T03:21:23;100720.13;;;7.51;63.51
23427;BME280;41148;45.420;10.952;2023-04-08T03:23:51;100712.88;;;7.64;63.00
23427;BME280;41148;45.420;10.952;2023-04-08T03:26:18;100715.53;;;7.64;62.83
23427;BME280;41148;45.420;10.952;2023-04-08T03:28:46;100726.97;;;7.66;62.91
23427;BME280;41148;45.420;10.952;2023-04-08T03:31:14;100731.44;;;7.61;63.57
23427;BME280;41148;45.420;10.952;2023-04-08T03:33:41;100722.91;;;7.43;64.28
23427;BME280;41148;45.420;10.952;2023-04-08T03:36:08;100725.50;;;7.46;64.10
23427;BME280;41148;45.420;10.952;2023-04-08T03:38:36;100706.75;;;7.59;63.23
23427;BME280;41148;45.420;10.952;2023-04-08T03:41:03;100724.38;;;7.61;63.17
23427;BME280;41148;45.420;10.952;2023-04-08T03:43:31;100721.00;;;7.50;64.21
23427;BME280;41148;45.420;10.952;2023-04-08T03:45:58;100708.63;;;7.54;63.74
23427;BME280;41148;45.420;10.952;2023-04-08T03:48:26;100723.22;;;7.79;62.81
23427;BME280;41148;45.420;10.952;2023-04-08T03:50:54;100718.03;;;7.71;62.75
23427;BME280;41148;45.420;10.952;2023-04-08T03:53:21;100733.94;;;7.73;62.76
23427;BME280;41148;45.420;10.952;2023-04-08T03:55:49;100728.59;;;7.74;62.78
23427;BME280;41148;45.420;10.952;2023-04-08T03:58:19;100730.53;;;7.65;63.15
23427;BME280;41148;45.420;10.952;2023-04-08T04:00:46;100732.31;;;7.61;63.25
23427;BME280;41148;45.420;10.952;2023-04-08T04:03:14;100733.22;;;7.63;62.88
23427;BME280;41148;45.420;10.952;2023-04-08T04:05:41;100724.19;;;7.75;62.94
23427;BME280;41148;45.420;10.952;2023-04-08T04:08:09;100733.03;;;7.74;62.98
23427;BME280;41148;45.420;10.952;2023-04-08T04:10:36;100733.75;;;7.85;62.16
23427;BME280;41148;45.420;10.952;2023-04-08T04:13:04;100717.84;;;7.84;61.91
23427;BME280;41148;45.420;10.952;2023-04-08T04:15:32;100709.91;;;7.84;61.92
23427;BME280;41148;45.420;10.952;2023-04-08T04:17:59;100708.16;;;7.83;62.16
23427;BME280;41148;45.420;10.952;2023-04-08T04:20:27;100714.09;;;7.97;61.97
23427;BME280;41148;45.420;10.952;2023-04-08T04:22:56;100730.78;;;8.03;61.85
23427;BME280;41148;45.420;10.952;2023-04-08T04:25:24;100737.09;;;7.96;62.05
23427;BME280;41148;45.420;10.952;2023-04-08T04:27:52;100734.38;;;7.99;61.86
23427;BME280;41148;45.420;10.952;2023-04-08T04:30:19;100739.84;;;7.92;62.40
23427;BME280;41148;45.420;10.952;2023-04-08T04:32:47;100737.88;;;8.03;62.25
23427;BME280;41148;45.420;10.952;2023-04-08T04:35:14;100739.91;;;7.86;63.05
23427;BME280;41148;45.420;10.952;2023-04-08T04:37:42;100740.97;;;7.75;64.16
23427;BME280;41148;45.420;10.952;2023-04-08T04:40:09;100744.38;;;7.84;63.95
23427;BME280;41148;45.420;10.952;2023-04-08T04:42:37;100756.94;;;7.72;65.42
23427;BME280;41148;45.420;10.952;2023-04-08T04:45:05;100759.63;;;7.68;65.34
23427;BME280;41148;45.420;10.952;2023-04-08T04:47:32;100757.81;;;7.71;65.91
23427;BME280;41148;45.420;10.952;2023-04-08T04:50:00;100765.13;;;7.56;65.99
23427;BME280;41148;45.420;10.952;2023-04-08T04:52:27;100757.19;;;7.53;66.68
23427;BME280;41148;45.420;10.952;2023-04-08T04:54:56;100763.41;;;7.52;66.93
23427;BME280;41148;45.420;10.952;2023-04-08T04:57:24;100767.75;;;7.57;65.45
23427;BME280;41148;45.420;10.952;2023-04-08T04:59:51;100759.72;;;7.63;64.78
23427;BME280;41148;45.420;10.952;2023-04-08T05:02:19;100771.13;;;7.68;64.43
23427;BME280;41148;45.420;10.952;2023-04-08T05:04:46;100758.03;;;7.58;64.16
23427;BME280;41148;45.420;10.952;2023-04-08T05:07:14;100771.88;;;7.77;63.96
23427;BME280;41148;45.420;10.952;2023-04-08T05:09:42;100773.69;;;7.74;63.94
23427;BME280;41148;45.420;10.952;2023-04-08T05:12:09;100781.53;;;7.81;64.41
23427;BME280;41148;45.420;10.952;2023-04-08T05:14:36;100771.75;;;7.86;64.49
23427;BME280;41148;45.420;10.952;2023-04-08T05:17:04;100793.78;;;7.89;64.16
23427;BME280;41148;45.420;10.952;2023-04-08T05:19:32;100778.69;;;7.94;63.29
23427;BME280;41148;45.420;10.952;2023-04-08T05:22:00;100756.59;;;7.94;63.18
23427;BME280;41148;45.420;10.952;2023-04-08T05:24:27;100773.13;;;8.11;62.87
23427;BME280;41148;45.420;10.952;2023-04-08T05:26:55;100760.75;;;8.09;62.59
23427;BME280;41148;45.420;10.952;2023-04-08T05:29:24;100777.25;;;8.27;62.35
23427;BME280;41148;45.420;10.952;2023-04-08T05:31:51;100770.13;;;8.31;62.13
23427;BME280;41148;45.420;10.952;2023-04-08T05:34:19;100793.03;;;8.40;62.08
23427;BME280;41148;45.420;10.952;2023-04-08T05:36:49;100803.72;;;8.32;62.75
23427;BME280;41148;45.420;10.952;2023-04-08T05:39:18;100809.94;;;8.29;62.29
23427;BME280;41148;45.420;10.952;2023-04-08T05:41:46;100810.66;;;8.42;62.47
23427;BME280;41148;45.420;10.952;2023-04-08T05:44:13;100818.59;;;8.44;63.35
23427;BME280;41148;45.420;10.952;2023-04-08T05:46:41;100822.25;;;8.37;63.42
23427;BME280;41148;45.420;10.952;2023-04-08T05:49:09;100822.38;;;8.27;64.36
23427;BME280;41148;45.420;10.952;2023-04-08T05:51:37;100803.72;;;8.32;64.25
23427;BME280;41148;45.420;10.952;2023-04-08T05:54:05;100816.09;;;8.35;64.52
23427;BME280;41148;45.420;10.952;2023-04-08T05:56:33;100810.84;;;8.28;65.20
23427;BME280;41148;45.420;10.952;2023-04-08T05:59:01;100822.22;;;8.40;64.90
23427;BME280;41148;45.420;10.952;2023-04-08T06:01:28;100823.88;;;8.45;64.50
23427;BME280;41148;45.420;10.952;2023-04-08T06:03:56;100817.59;;;8.51;64.09
23427;BME280;41148;45.420;10.952;2023-04-08T06:06:24;100824.44;;;8.64;63.89
23427;BME280;41148;45.420;10.952;2023-04-08T06:08:54;100825.41;;;8.60;64.21
23427;BME280;41148;45.420;10.952;2023-04-08T06:11:21;100819.16;;;8.63;64.36
23427;BME280;41148;45.420;10.952;2023-04-08T06:13:49;100829.78;;;8.63;64.52
23427;BME280;41148;45.420;10.952;2023-04-08T06:16:16;100836.78;;;8.67;64.43
23427;BME280;41148;45.420;10.952;2023-04-08T06:18:47;100818.66;;;8.41;65.46
23427;BME280;41148;45.420;10.952;2023-04-08T06:21:15;100835.84;;;8.15;67.41
23427;BME280;41148;45.420;10.952;2023-04-08T06:23:43;100834.69;;;8.33;65.98
23427;BME280;41148;45.420;10.952;2023-04-08T06:26:10;100841.72;;;8.37;65.34
23427;BME280;41148;45.420;10.952;2023-04-08T06:28:38;100838.13;;;8.41;65.11
23427;BME280;41148;45.420;10.952;2023-04-08T06:31:05;100852.31;;;8.39;65.80
23427;BME280;41148;45.420;10.952;2023-04-08T06:33:32;100838.09;;;8.43;65.51
23427;BME280;41148;45.420;10.952;2023-04-08T06:36:01;100846.63;;;8.62;65.21
23427;BME280;41148;45.420;10.952;2023-04-08T06:38:30;100855.00;;;8.88;64.78
23427;BME280;41148;45.420;10.952;2023-04-08T06:41:02;100850.19;;;9.07;63.74
23427;BME280;41148;45.420;10.952;2023-04-08T06:43:31;100836.75;;;9.14;63.56
23427;BME280;41148;45.420;10.952;2023-04-08T06:45:58;100856.03;;;9.26;63.44
23427;BME280;41148;45.420;10.952;2023-04-08T06:48:26;100834.94;;;9.18;64.09
23427;BME280;41148;45.420;10.952;2023-04-08T06:50:57;100839.84;;;9.38;63.65
23427;BME280;41148;45.420;10.952;2023-04-08T06:53:25;100831.34;;;9.62;63.08
23427;BME280;41148;45.420;10.952;2023-04-08T06:55:53;100848.31;;;9.57;63.20
23427;BME280;41148;45.420;10.952;2023-04-08T06:58:20;100831.06;;;9.74;62.66
23427;BME280;41148;45.420;10.952;2023-04-08T07:00:48;100843.88;;;9.97;62.94
23427;BME280;41148;45.420;10.952;2023-04-08T07:03:15;100853.59;;;9.98;62.18
23427;BME280;41148;45.420;10.952;2023-04-08T07:05:43;100847.16;;;10.09;61.87
23427;BME280;41148;45.420;10.952;2023-04-08T07:08:10;100843.44;;;10.16;61.42
23427;BME280;41148;45.420;10.952;2023-04-08T07:10:38;100847.28;;;10.04;61.96
23427;BME280;41148;45.420;10.952;2023-04-08T07:13:05;100851.09;;;9.91;62.51
23427;BME280;41148;45.420;10.952;2023-04-08T07:15:33;100848.94;;;10.08;62.17
23427;BME280;41148;45.420;10.952;2023-04-08T07:18:00;100851.25;;;10.25;62.25
23427;BME280;41148;45.420;10.952;2023-04-08T07:20:27;100852.00;;;10.30;61.91
23427;BME280;41148;45.420;10.952;2023-04-08T07:22:58;100848.06;;;10.46;61.48
23427;BME280;41148;45.420;10.952;2023-04-08T07:25:25;100852.09;;;10.61;60.84
23427;BME280;41148;45.420;10.952;2023-04-08T07:27:53;100847.50;;;10.68;60.45
23427;BME280;41148;45.420;10.952;2023-04-08T07:30:20;100847.31;;;10.75;60.25
23427;BME280;41148;45.420;10.952;2023-04-08T07:32:48;100857.34;;;10.98;59.80
23427;BME280;41148;45.420;10.952;2023-04-08T07:35:15;100859.03;;;11.33;58.74
23427;BME280;41148;45.420;10.952;2023-04-08T07:37:50;100860.94;;;11.61;58.34
23427;BME280;41148;45.420;10.952;2023-04-08T07:40:19;100854.09;;;11.82;57.68
23427;BME280;41148;45.420;10.952;2023-04-08T07:42:46;100853.03;;;12.15;56.44
23427;BME280;41148;45.420;10.952;2023-04-08T07:45:14;100866.66;;;12.08;55.53
23427;BME280;41148;45.420;10.952;2023-04-08T07:47:43;100857.19;;;11.66;56.39
23427;BME280;41148;45.420;10.952;2023-04-08T07:50:11;100845.50;;;11.70;56.77
23427;BME280;41148;45.420;10.952;2023-04-08T07:52:38;100857.41;;;11.90;56.31
23427;BME280;41148;45.420;10.952;2023-04-08T07:55:06;100857.22;;;12.24;55.04
23427;BME280;41148;45.420;10.952;2023-04-08T07:57:34;100856.72;;;12.39;53.94
23427;BME280;41148;45.420;10.952;2023-04-08T08:00:01;100863.31;;;12.55;54.02
23427;BME280;41148;45.420;10.952;2023-04-08T08:02:39;100854.50;;;13.05;52.23
23427;BME280;41148;45.420;10.952;2023-04-08T08:05:07;100846.09;;;13.64;50.83
23427;BME280;41148;45.420;10.952;2023-04-08T08:07:34;100840.50;;;14.15;49.58
23427;BME280;41148;45.420;10.952;2023-04-08T08:10:02;100848.75;;;14.75;47.32
23427;BME280;41148;45.420;10.952;2023-04-08T08:12:30;100847.38;;;15.27;46.80
23427;BME280;41148;45.420;10.952;2023-04-08T08:14:57;100843.97;;;15.82;45.02
23427;BME280;41148;45.420;10.952;2023-04-08T08:17:25;100839.88;;;15.74;44.94
23427;BME280;41148;45.420;10.952;2023-04-08T08:19:56;100848.03;;;15.32;45.76
23427;BME280;41148;45.420;10.952;2023-04-08T08:22:24;100841.03;;;15.88;44.19
23427;BME280;41148;45.420;10.952;2023-04-08T08:24:55;100842.91;;;15.86;44.30
23427;BME280;41148;45.420;10.952;2023-04-08T08:27:24;100850.53;;;15.16;45.90
23427;BME280;41148;45.420;10.952;2023-04-08T08:29:52;100840.16;;;15.09;46.69
23427;BME280;41148;45.420;10.952;2023-04-08T08:32:19;100831.88;;;14.93;46.89
23427;BME280;41148;45.420;10.952;2023-04-08T08:34:47;100854.41;;;14.69;47.60
23427;BME280;41148;45.420;10.952;2023-04-08T08:37:14;100852.78;;;14.65;47.90
23427;BME280;41148;45.420;10.952;2023-04-08T08:39:42;100858.00;;;14.24;48.82
23427;BME280;41148;45.420;10.952;2023-04-08T08:42:22;100853.53;;;14.24;49.02
23427;BME280;41148;45.420;10.952;2023-04-08T08:44:54;100855.31;;;14.02;48.89
23427;BME280;41148;45.420;10.952;2023-04-08T08:47:22;100862.00;;;14.14;49.13
23427;BME280;41148;45.420;10.952;2023-04-08T08:49:49;100850.06;;;13.99;49.45
23427;BME280;41148;45.420;10.952;2023-04-08T08:52:17;100855.69;;;14.15;48.87
23427;BME280;41148;45.420;10.952;2023-04-08T08:54:44;100865.09;;;14.48;47.40
23427;BME280;41148;45.420;10.952;2023-04-08T08:57:16;100858.59;;;14.09;48.16
23427;BME280;41148;45.420;10.952;2023-04-08T08:59:46;100879.22;;;15.14;46.01
23427;BME280;41148;45.420;10.952;2023-04-08T09:02:28;100852.09;;;15.61;44.45
23427;BME280;41148;45.420;10.952;2023-04-08T09:05:01;100859.44;;;16.33;42.72
23427;BME280;41148;45.420;10.952;2023-04-08T09:07:31;100855.13;;;15.93;41.44
23427;BME280;41148;45.420;10.952;2023-04-08T09:10:01;100846.72;;;15.61;42.50
23427;BME280;41148;45.420;10.952;2023-04-08T09:12:29;100843.81;;;16.58;41.60
23427;BME280;41148;45.420;10.952;2023-04-08T09:15:15;100835.94;;;17.58;38.78
23427;BME280;41148;45.420;10.952;2023-04-08T09:17:43;100854.44;;;17.64;36.95
23427;BME280;41148;45.420;10.952;2023-04-08T09:20:11;100834.63;;;17.49;37.40
23427;BME280;41148;45.420;10.952;2023-04-08T09:23:06;100847.03;;;17.19;38.60
23427;BME280;41148;45.420;10.952;2023-04-08T09:25:33;100841.31;;;17.58;37.55
23427;BME280;41148;45.420;10.952;2023-04-08T09:28:01;100849.72;;;17.01;37.67
23427;BME280;41148;45.420;10.952;2023-04-08T09:30:31;100851.66;;;16.27;38.70
23427;BME280;41148;45.420;10.952;2023-04-08T09:32:58;100851.56;;;15.92;39.22
23427;BME280;41148;45.420;10.952;2023-04-08T09:35:27;100837.47;;;15.68;39.60
23427;BME280;41148;45.420;10.952;2023-04-08T09:37:55;100845.25;;;15.54;40.26
23427;BME280;41148;45.420;10.952;2023-04-08T09:40:23;100840.88;;;15.52;38.97
23427;BME280;41148;45.420;10.952;2023-04-08T09:42:53;100849.22;;;15.06;40.16
23427;BME280;41148;45.420;10.952;2023-04-08T09:45:23;100857.63;;;15.38;40.52
23427;BME280;41148;45.420;10.952;2023-04-08T09:47:56;100846.97;;;15.76;39.32
23427;BME280;41148;45.420;10.952;2023-04-08T09:50:31;100839.44;;;15.44;40.18
23427;BME280;41148;45.420;10.952;2023-04-08T09:53:19;100844.13;;;15.39;39.16
23427;BME280;41148;45.420;10.952;2023-04-08T09:55:54;100844.44;;;15.52;38.92
23427;BME280;41148;45.420;10.952;2023-04-08T09:58:33;100838.72;;;15.60;38.14
23427;BME280;41148;45.420;10.952;2023-04-08T10:01:06;100840.09;;;15.50;37.63
23427;BME280;41148;45.420;10.952;2023-04-08T10:03:36;100842.72;;;15.31;37.92
23427;BME280;41148;45.420;10.952;2023-04-08T10:06:07;100840.28;;;15.06;38.96
23427;BME280;41148;45.420;10.952;2023-04-08T10:08:35;100834.69;;;15.10;39.02
23427;BME280;41148;45.420;10.952;2023-04-08T10:11:02;100831.81;;;15.15;37.81
23427;BME280;41148;45.420;10.952;2023-04-08T10:13:30;100839.66;;;15.20;38.44
23427;BME280;41148;45.420;10.952;2023-04-08T10:18:43;100822.00;;;15.73;38.56
23427;BME280;41148;45.420;10.952;2023-04-08T10:21:31;100830.44;;;15.85;37.22
23427;BME280;41148;45.420;10.952;2023-04-08T10:23:59;100830.19;;;15.70;37.30
23427;BME280;41148;45.420;10.952;2023-04-08T10:31:48;100828.69;;;15.65;36.75
23427;BME280;41148;45.420;10.952;2023-04-08T10:34:24;100822.88;;;15.74;37.04
23427;BME280;41148;45.420;10.952;2023-04-08T10:36:54;100824.63;;;15.75;37.38
23427;BME280;41148;45.420;10.952;2023-04-08T10:39:23;100818.81;;;15.84;36.29
23427;BME280;41148;45.420;10.952;2023-04-08T10:41:51;100822.88;;;15.93;35.93
23427;BME280;41148;45.420;10.952;2023-04-08T10:44:24;100817.88;;;15.85;35.71
23427;BME280;41148;45.420;10.952;2023-04-08T10:46:53;100810.59;;;15.29;35.66
23427;BME280;41148;45.420;10.952;2023-04-08T10:49:20;100817.94;;;15.65;34.97
23427;BME280;41148;45.420;10.952;2023-04-08T10:51:48;100823.44;;;15.62;35.55
23427;BME280;41148;45.420;10.952;2023-04-08T10:54:17;100798.47;;;15.79;35.27
23427;BME280;41148;45.420;10.952;2023-04-08T10:56:50;100807.19;;;15.84;35.17
23427;BME280;41148;45.420;10.952;2023-04-08T10:59:29;100809.75;;;16.23;35.06
23427;BME280;41148;45.420;10.952;2023-04-08T11:01:58;100815.44;;;16.17;33.66
23427;BME280;41148;45.420;10.952;2023-04-08T11:04:27;100819.59;;;16.05;33.73
23427;BME280;41148;45.420;10.952;2023-04-08T11:06:55;100815.66;;;16.12;34.02
23427;BME280;41148;45.420;10.952;2023-04-08T11:09:23;100812.31;;;16.07;33.64
23427;BME280;41148;45.420;10.952;2023-04-08T11:11:51;100806.16;;;16.05;33.61
23427;BME280;41148;45.420;10.952;2023-04-08T11:14:19;100804.53;;;16.01;33.18
23427;BME280;41148;45.420;10.952;2023-04-08T11:16:48;100790.06;;;15.86;33.95
23427;BME280;41148;45.420;10.952;2023-04-08T11:19:15;100804.25;;;16.07;33.42
23427;BME280;41148;45.420;10.952;2023-04-08T11:21:44;100791.25;;;15.98;33.55
23427;BME280;41148;45.420;10.952;2023-04-08T11:24:11;100808.56;;;15.92;33.36
23427;BME280;41148;45.420;10.952;2023-04-08T11:26:39;100800.53;;;16.10;33.68
23427;BME280;41148;45.420;10.952;2023-04-08T11:29:11;100795.78;;;15.97;33.07
23427;BME280;41148;45.420;10.952;2023-04-08T11:31:42;100794.19;;;15.93;32.95
23427;BME280;41148;45.420;10.952;2023-04-08T11:34:10;100785.72;;;15.84;34.34
23427;BME280;41148;45.420;10.952;2023-04-08T11:36:41;100780.44;;;15.99;33.11
23427;BME280;41148;45.420;10.952;2023-04-08T11:39:08;100790.75;;;16.09;33.21
23427;BME280;41148;45.420;10.952;2023-04-08T11:41:38;100788.03;;;16.09;33.25
23427;BME280;41148;45.420;10.952;2023-04-08T11:44:08;100778.53;;;16.01;32.96
23427;BME280;41148;45.420;10.952;2023-04-08T11:46:36;100787.72;;;15.97;32.54
23427;BME280;41148;45.420;10.952;2023-04-08T11:49:06;100784.22;;;15.95;32.68
23427;BME280;41148;45.420;10.952;2023-04-08T11:51:37;100781.72;;;15.92;32.56
23427;BME280;41148;45.420;10.952;2023-04-08T11:54:27;100774.97;;;15.84;32.85
23427;BME280;41148;45.420;10.952;2023-04-08T11:56:55;100780.25;;;15.85;32.61
23427;BME280;41148;45.420;10.952;2023-04-08T11:59:24;100778.78;;;15.59;33.43
23427;BME280;41148;45.420;10.952;2023-04-08T12:01:55;100771.19;;;15.69;32.69
23427;BME280;41148;45.420;10.952;2023-04-08T12:04:23;100772.28;;;15.84;32.23
23427;BME280;41148;45.420;10.952;2023-04-08T12:06:50;100769.59;;;15.65;31.43
23427;BME280;41148;45.420;10.952;2023-04-08T12:09:18;100768.09;;;15.58;32.28
23427;BME280;41148;45.420;10.952;2023-04-08T12:11:45;100772.88;;;15.51;32.25
23427;BME280;41148;45.420;10.952;2023-04-08T12:14:13;100766.38;;;15.57;32.70
23427;BME280;41148;45.420;10.952;2023-04-08T12:16:41;100762.19;;;15.70;32.25
23427;BME280;41148;45.420;10.952;2023-04-08T12:19:08;100770.47;;;15.84;32.36
23427;BME280;41148;45.420;10.952;2023-04-08T12:21:36;100776.91;;;15.80;31.90
23427;BME280;41148;45.420;10.952;2023-04-08T12:24:04;100762.41;;;16.01;31.64
23427;BME280;41148;45.420;10.952;2023-04-08T12:26:31;100757.28;;;15.97;32.22
23427;BME280;41148;45.420;10.952;2023-04-08T12:28:59;100763.00;;;16.08;32.45
23427;BME280;41148;45.420;10.952;2023-04-08T12:31:26;100762.84;;;16.11;31.42
23427;BME280;41148;45.420;10.952;2023-04-08T12:33:54;100762.16;;;16.25;31.27
23427;BME280;41148;45.420;10.952;2023-04-08T12:36:22;100765.88;;;16.40;31.34
23427;BME280;41148;45.420;10.952;2023-04-08T12:38:50;100763.97;;;16.24;31.50
23427;BME280;41148;45.420;10.952;2023-04-08T12:41:18;100754.66;;;16.31;32.50
23427;BME280;41148;45.420;10.952;2023-04-08T12:43:45;100764.44;;;16.15;31.23
23427;BME280;41148;45.420;10.952;2023-04-08T12:46:13;100757.41;;;16.13;31.76
23427;BME280;41148;45.420;10.952;2023-04-08T12:48:40;100745.66;;;16.33;31.14
23427;BME280;41148;45.420;10.952;2023-04-08T12:51:08;100754.34;;;16.38;30.99
23427;BME280;41148;45.420;10.952;2023-04-08T12:53:36;100743.75;;;16.35;31.54
23427;BME280;41148;45.420;10.952;2023-04-08T12:56:04;100752.03;;;16.47;31.25
23427;BME280;41148;45.420;10.952;2023-04-08T12:58:31;100751.50;;;16.58;31.42
23427;BME280;41148;45.420;10.952;2023-04-08T13:00:59;100731.38;;;16.30;31.55
23427;BME280;41148;45.420;10.952;2023-04-08T13:03:26;100739.47;;;16.30;31.53